createdAt,value
2022-08-31T00:00:29.724Z,50.38
2022-08-31T00:03:15.303Z,50.50
2022-08-31T00:05:42.228Z,52.76
2022-08-31T00:08:09.190Z,52.01
2022-08-31T00:10:36.968Z,53.43
2022-08-31T00:13:09.707Z,53.79
2022-08-31T00:15:36.455Z,54.27
2022-08-31T00:18:04.892Z,54.61
2022-08-31T00:20:33.969Z,52.98
2022-08-31T00:23:06.061Z,55.77
2022-08-31T00:25:34.410Z,54.81
2022-08-31T00:28:01.791Z,56.43
2022-08-31T00:30:28.645Z,57.52
2022-08-31T00:32:58.191Z,56.80
2022-08-31T00:35:29.574Z,57.63
2022-08-31T00:37:57.012Z,56.56
2022-08-31T00:40:24.645Z,58.00
2022-08-31T00:42:52.090Z,57.41
2022-08-31T00:45:19.259Z,57.73
2022-08-31T00:47:46.092Z,58.30
2022-08-31T00:50:16.042Z,56.87
2022-08-31T00:52:47.366Z,56.90
2022-08-31T00:55:29.938Z,57.27
2022-08-31T00:58:00.151Z,57.16
2022-08-31T01:00:28.549Z,56.77
2022-08-31T01:02:57.311Z,56.33
2022-08-31T01:05:24.918Z,55.91
2022-08-31T01:07:52.839Z,57.91
2022-08-31T01:10:22.440Z,56.29
2022-08-31T01:12:52.636Z,56.63
2022-08-31T01:15:20.087Z,56.52
2022-08-31T01:17:49.537Z,56.15
2022-08-31T01:20:16.280Z,55.45
2022-08-31T01:22:52.182Z,55.43
2022-08-31T01:25:20.150Z,54.99
2022-08-31T01:27:47.475Z,53.22
2022-08-31T01:30:24.012Z,55.20
2022-08-31T01:32:50.882Z,55.21
2022-08-31T01:35:17.912Z,55.54
2022-08-31T01:37:45.101Z,55.63
2022-08-31T01:40:12.770Z,56.06
2022-08-31T01:42:39.492Z,58.30
2022-08-31T01:45:08.101Z,59.73
2022-08-31T01:47:35.120Z,58.08
2022-08-31T01:50:01.994Z,59.04
2022-08-31T01:52:28.791Z,59.61
2022-08-31T01:54:56.666Z,59.26
2022-08-31T01:57:24.464Z,59.69
2022-08-31T02:00:04.688Z,59.12
2022-08-31T02:02:32.080Z,60.43
2022-08-31T02:04:59.259Z,58.62
2022-08-31T02:07:26.646Z,59.38
2022-08-31T02:09:54.931Z,59.50
2022-08-31T02:12:21.800Z,57.73
2022-08-31T02:14:48.756Z,58.42
2022-08-31T02:17:15.701Z,60.04
2022-08-31T02:19:42.450Z,60.08
2022-08-31T02:22:09.298Z,57.87
2022-08-31T02:24:36.174Z,57.12
2022-08-31T02:27:03.031Z,60.67
2022-08-31T02:29:29.710Z,60.03
2022-08-31T02:31:58.621Z,61.22
2022-08-31T02:34:25.509Z,60.23
2022-08-31T02:36:52.225Z,61.46
2022-08-31T02:39:18.968Z,61.74
2022-08-31T02:41:45.985Z,60.84
2022-08-31T02:44:12.735Z,60.44
2022-08-31T02:46:39.532Z,59.95
2022-08-31T02:49:06.397Z,58.99
2022-08-31T02:51:33.100Z,60.85
2022-08-31T02:53:59.950Z,59.95
2022-08-31T02:56:26.729Z,59.59
2022-08-31T02:58:55.097Z,59.03
2022-08-31T03:01:26.660Z,58.59
2022-08-31T03:03:53.619Z,58.48
2022-08-31T03:06:21.207Z,57.39
2022-08-31T03:08:48.127Z,58.32
2022-08-31T03:11:16.223Z,57.74
2022-08-31T03:13:43.136Z,56.82
2022-08-31T03:16:11.901Z,55.30
2022-08-31T03:18:38.698Z,55.83
2022-08-31T03:21:05.568Z,56.14
2022-08-31T03:23:32.371Z,56.79
2022-08-31T03:25:59.429Z,57.00
2022-08-31T03:28:26.209Z,59.05
2022-08-31T03:30:52.940Z,61.32
2022-08-31T03:33:19.803Z,60.87
2022-08-31T03:35:46.620Z,60.26
2022-08-31T03:38:14.184Z,59.56
2022-08-31T03:40:42.050Z,58.93
2022-08-31T03:43:11.497Z,58.67
2022-08-31T03:45:41.941Z,58.72
2022-08-31T03:48:12.560Z,59.71
2022-08-31T03:50:40.825Z,59.48
2022-08-31T03:53:08.313Z,58.33
2022-08-31T03:55:37.157Z,59.22
2022-08-31T03:58:04.846Z,58.66
2022-08-31T04:00:33.481Z,57.56
2022-08-31T04:03:01.860Z,57.99
2022-08-31T04:05:30.841Z,57.90
2022-08-31T04:07:57.783Z,58.58
2022-08-31T04:10:24.663Z,57.67
2022-08-31T04:12:51.756Z,57.94
2022-08-31T04:15:19.083Z,57.80
2022-08-31T04:17:46.915Z,57.68
2022-08-31T04:20:14.981Z,57.94
2022-08-31T04:22:42.128Z,58.94
2022-08-31T04:25:10.594Z,60.46
2022-08-31T04:27:40.729Z,60.31
2022-08-31T04:30:09.291Z,60.23
2022-08-31T04:32:36.217Z,58.32
2022-08-31T04:35:04.075Z,57.09
2022-08-31T04:37:31.203Z,55.42
2022-08-31T04:39:59.308Z,53.30
2022-08-31T04:42:26.564Z,51.11
2022-08-31T04:44:53.433Z,49.94
2022-08-31T04:47:20.532Z,49.34
2022-08-31T04:49:48.242Z,48.77
2022-08-31T04:52:15.061Z,49.94
2022-08-31T04:54:42.126Z,48.81
2022-08-31T04:57:08.797Z,47.44
2022-08-31T04:59:35.534Z,50.74
2022-08-31T05:02:04.199Z,49.69
2022-08-31T05:04:32.011Z,50.60
2022-08-31T05:06:59.119Z,48.76
2022-08-31T05:09:26.193Z,47.21
2022-08-31T05:11:56.297Z,45.63
2022-08-31T05:14:24.219Z,44.78
2022-08-31T05:16:52.100Z,42.71
2022-08-31T05:19:20.373Z,41.07
2022-08-31T05:21:47.456Z,39.05
2022-08-31T05:24:18.284Z,37.96
2022-08-31T05:26:48.420Z,38.42
2022-08-31T05:29:17.015Z,39.26
2022-08-31T05:31:47.076Z,38.34
2022-08-31T05:34:17.804Z,38.16
2022-08-31T05:36:46.362Z,36.93
2022-08-31T05:39:13.977Z,36.17
2022-08-31T05:41:42.688Z,34.80
2022-08-31T05:44:10.217Z,34.20
2022-08-31T05:46:37.478Z,35.13
2022-08-31T05:49:06.886Z,35.35
2022-08-31T05:51:37.871Z,35.99
2022-08-31T05:54:06.654Z,34.87
2022-08-31T05:56:34.649Z,34.53
2022-08-31T05:59:01.866Z,33.78
2022-08-31T06:01:38.484Z,34.03
2022-08-31T06:04:06.914Z,32.99
2022-08-31T06:06:34.383Z,31.59
2022-08-31T06:09:01.127Z,32.10
2022-08-31T06:11:29.935Z,31.75
2022-08-31T06:13:59.031Z,33.09
2022-08-31T06:16:27.220Z,32.31
2022-08-31T06:18:55.799Z,31.11
2022-08-31T06:21:25.982Z,31.14
2022-08-31T06:23:55.156Z,31.41
2022-08-31T06:26:23.833Z,31.54
2022-08-31T06:28:53.315Z,32.61
2022-08-31T06:31:26.783Z,32.96
2022-08-31T06:33:55.219Z,31.19
2022-08-31T06:36:23.884Z,30.63
2022-08-31T06:38:51.716Z,30.98
2022-08-31T06:41:24.862Z,30.33
2022-08-31T06:43:51.773Z,33.91
2022-08-31T06:46:21.024Z,30.16
2022-08-31T06:48:48.495Z,29.91
2022-08-31T06:51:15.227Z,30.20
2022-08-31T06:53:45.374Z,30.61
2022-08-31T06:56:21.332Z,30.25
2022-08-31T06:58:54.128Z,32.28
2022-08-31T07:01:35.222Z,30.61
2022-08-31T07:04:07.755Z,30.46
2022-08-31T07:06:37.055Z,31.36
2022-08-31T07:09:07.124Z,30.06
2022-08-31T07:11:36.951Z,29.75
2022-08-31T07:14:07.459Z,29.95
2022-08-31T07:16:34.406Z,30.05
2022-08-31T07:19:04.354Z,29.51
2022-08-31T07:21:34.242Z,29.21
2022-08-31T07:24:03.585Z,28.75
2022-08-31T07:26:36.491Z,27.10
2022-08-31T07:29:06.205Z,28.06
2022-08-31T07:31:44.092Z,27.62
2022-08-31T07:34:12.256Z,27.95
2022-08-31T07:36:59.662Z,28.00
2022-08-31T07:39:46.441Z,27.71
2022-08-31T07:42:18.276Z,28.84
2022-08-31T07:44:53.415Z,27.22
2022-08-31T07:47:22.529Z,26.76
2022-08-31T07:49:53.914Z,26.50
2022-08-31T07:52:24.288Z,27.86
2022-08-31T07:54:53.146Z,27.47
2022-08-31T07:57:22.106Z,25.49
2022-08-31T07:59:54.835Z,25.83
2022-08-31T08:02:23.729Z,29.29
2022-08-31T08:04:53.493Z,28.78
2022-08-31T08:07:21.457Z,26.18
2022-08-31T08:09:48.455Z,26.17
2022-08-31T08:12:15.390Z,26.65
2022-08-31T08:14:42.265Z,27.22
2022-08-31T08:17:09.410Z,27.39
2022-08-31T08:19:36.268Z,27.21
2022-08-31T08:22:03.895Z,26.79
2022-08-31T08:24:32.717Z,25.40
2022-08-31T08:27:00.148Z,26.50
2022-08-31T08:29:29.968Z,25.34
2022-08-31T08:32:00.617Z,25.38
2022-08-31T08:34:32.360Z,25.31
2022-08-31T08:36:59.837Z,26.88
2022-08-31T08:39:27.421Z,27.14
2022-08-31T08:41:58.034Z,26.45
2022-08-31T08:44:28.862Z,27.88
2022-08-31T08:46:59.062Z,27.14
2022-08-31T08:49:28.731Z,26.63
2022-08-31T08:52:12.033Z,26.05
2022-08-31T08:54:44.025Z,27.46
2022-08-31T08:57:15.947Z,28.52
2022-08-31T08:59:45.063Z,29.83
2022-08-31T09:02:15.333Z,26.87
2022-08-31T09:05:19.401Z,24.31
2022-08-31T09:08:18.250Z,23.65
2022-08-31T09:10:50.932Z,27.30
2022-08-31T09:13:31.161Z,24.51
2022-08-31T09:16:10.546Z,27.03
2022-08-31T09:18:57.777Z,24.27
2022-08-31T09:21:31.339Z,25.46
2022-08-31T09:24:03.941Z,24.69
2022-08-31T09:26:35.858Z,23.83
2022-08-31T09:29:14.106Z,24.13
2022-08-31T09:31:42.617Z,26.68
2022-08-31T09:34:25.615Z,27.77
2022-08-31T09:36:57.825Z,22.74
2022-08-31T09:39:36.886Z,22.61
2022-08-31T09:42:14.787Z,23.98
2022-08-31T09:44:43.094Z,26.17
2022-08-31T09:47:29.393Z,26.47
2022-08-31T09:49:58.207Z,26.70
2022-08-31T09:52:48.027Z,25.61
2022-08-31T09:55:24.992Z,26.17
2022-08-31T09:57:59.366Z,24.55
2022-08-31T10:00:41.508Z,25.95
2022-08-31T10:03:13.805Z,24.47
2022-08-31T10:05:43.768Z,25.21
2022-08-31T10:08:58.266Z,24.06
2022-08-31T10:11:31.026Z,24.41
2022-08-31T10:14:04.720Z,23.82
2022-08-31T10:17:00.535Z,24.20
2022-08-31T10:19:42.426Z,26.49
2022-08-31T10:22:28.316Z,25.88
2022-08-31T10:25:12.104Z,26.26
2022-08-31T10:27:45.326Z,28.12
2022-08-31T10:30:19.554Z,26.33
2022-08-31T10:33:11.922Z,26.50
2022-08-31T10:35:42.960Z,26.86
2022-08-31T10:38:26.447Z,26.08
2022-08-31T10:41:33.501Z,26.69
2022-08-31T10:44:17.212Z,26.91
2022-08-31T10:46:45.774Z,26.38
2022-08-31T10:49:12.757Z,26.53
2022-08-31T10:51:42.573Z,26.08
2022-08-31T10:54:37.362Z,26.47
2022-08-31T10:57:33.522Z,25.67
2022-08-31T11:00:09.062Z,25.24
2022-08-31T11:03:05.116Z,24.93
2022-08-31T11:05:58.292Z,23.84
2022-08-31T11:09:06.287Z,24.26
2022-08-31T11:11:42.482Z,23.81
2022-08-31T11:14:32.642Z,26.15
2022-08-31T11:17:19.396Z,21.33
2022-08-31T11:20:20.413Z,22.71
2022-08-31T11:23:06.394Z,22.06
2022-08-31T11:25:52.067Z,21.93
2022-08-31T11:28:34.794Z,22.39
2022-08-31T11:31:20.477Z,22.93
2022-08-31T11:34:14.614Z,23.44
2022-08-31T11:36:51.966Z,24.48
2022-08-31T11:39:46.201Z,24.52
2022-08-31T11:42:12.936Z,25.57
2022-08-31T11:44:39.875Z,27.55
2022-08-31T11:47:17.004Z,28.20
2022-08-31T11:49:56.249Z,29.78
2022-08-31T11:52:29.413Z,26.62
2022-08-31T11:55:00.969Z,26.57
2022-08-31T11:58:06.536Z,27.77
2022-08-31T12:00:52.761Z,23.73
2022-08-31T12:03:37.734Z,23.17
2022-08-31T12:06:08.322Z,23.00
2022-08-31T12:08:47.017Z,26.22
2022-08-31T12:11:41.096Z,26.37
2022-08-31T12:14:56.798Z,26.26
2022-08-31T12:17:26.424Z,24.72
2022-08-31T12:20:02.291Z,25.41
2022-08-31T12:23:31.142Z,24.75
2022-08-31T12:26:30.448Z,25.47
2022-08-31T12:28:57.153Z,26.59
2022-08-31T12:31:24.649Z,24.73
2022-08-31T12:34:01.840Z,24.20
2022-08-31T12:36:32.418Z,25.54
2022-08-31T12:39:34.728Z,24.91
2022-08-31T12:42:05.907Z,24.64
2022-08-31T12:44:45.069Z,24.41
2022-08-31T12:47:54.080Z,24.44
2022-08-31T12:51:07.934Z,24.70
2022-08-31T12:53:43.863Z,28.30
2022-08-31T12:56:32.605Z,26.65
2022-08-31T12:59:32.668Z,25.76
2022-08-31T13:02:12.670Z,25.67
2022-08-31T13:04:45.391Z,25.30
2022-08-31T13:07:33.377Z,25.80
2022-08-31T13:10:09.439Z,24.55
2022-08-31T13:12:36.669Z,26.08
2022-08-31T13:15:05.087Z,26.37
2022-08-31T13:17:39.652Z,25.76
2022-08-31T13:20:07.294Z,24.74
2022-08-31T13:22:42.925Z,25.97
2022-08-31T13:25:37.832Z,23.46
2022-08-31T13:28:14.437Z,24.21
2022-08-31T13:30:55.138Z,24.90
2022-08-31T13:33:27.271Z,24.08
2022-08-31T13:36:05.570Z,23.37
2022-08-31T13:38:42.534Z,23.12
2022-08-31T13:41:19.359Z,23.46
2022-08-31T13:43:52.324Z,24.07
2022-08-31T13:46:37.652Z,25.72
2022-08-31T13:49:20.922Z,27.53
2022-08-31T13:51:47.884Z,27.50
2022-08-31T13:54:27.729Z,27.57
2022-08-31T13:56:55.515Z,27.34
2022-08-31T13:59:24.882Z,26.80
2022-08-31T14:02:01.928Z,26.91
2022-08-31T14:04:44.411Z,26.71
2022-08-31T14:07:17.146Z,27.78
2022-08-31T14:09:46.152Z,27.70
2022-08-31T14:12:36.640Z,28.76
2022-08-31T14:15:20.226Z,30.76
2022-08-31T14:21:20.594Z,30.06
2022-08-31T14:24:02.822Z,30.48
2022-08-31T14:26:37.013Z,29.96
2022-08-31T14:29:11.046Z,31.32
2022-08-31T14:31:58.063Z,30.31
2022-08-31T14:34:32.378Z,30.44
2022-08-31T14:37:08.841Z,29.81
2022-08-31T14:39:36.976Z,30.03
2022-08-31T14:42:08.434Z,30.93
2022-08-31T14:44:42.396Z,29.74
2022-08-31T14:47:09.916Z,30.02
2022-08-31T14:49:37.166Z,30.07
2022-08-31T14:52:06.497Z,29.84
2022-08-31T14:54:37.488Z,29.38
2022-08-31T14:57:20.991Z,29.39
2022-08-31T14:59:47.977Z,30.11
2022-08-31T15:02:21.435Z,29.87
2022-08-31T15:04:51.701Z,30.95
2022-08-31T15:07:19.838Z,29.98
2022-08-31T15:09:50.218Z,30.51
2022-08-31T15:12:18.065Z,30.31
2022-08-31T15:14:45.302Z,30.56
2022-08-31T15:17:18.732Z,29.40
2022-08-31T15:19:46.384Z,29.16
2022-08-31T15:22:16.021Z,29.90
2022-08-31T15:24:45.024Z,30.42
2022-08-31T15:27:14.597Z,30.31
2022-08-31T15:29:43.577Z,31.12
2022-08-31T15:32:10.917Z,30.53
2022-08-31T15:34:38.717Z,31.47
2022-08-31T15:37:07.647Z,31.00
2022-08-31T15:39:37.917Z,31.57
2022-08-31T15:42:10.442Z,31.32
2022-08-31T15:44:40.716Z,32.25
2022-08-31T15:47:28.924Z,32.72
2022-08-31T15:49:57.818Z,32.86
2022-08-31T15:52:26.887Z,31.52
2022-08-31T15:54:55.230Z,33.57
2022-08-31T15:57:24.379Z,33.40
2022-08-31T15:59:52.106Z,33.31
2022-08-31T16:02:22.053Z,33.96
2022-08-31T16:04:51.457Z,34.34
2022-08-31T16:07:18.185Z,34.91
2022-08-31T16:09:46.259Z,34.94
2022-08-31T16:12:15.718Z,35.29
2022-08-31T16:14:46.759Z,37.06
2022-08-31T16:17:19.223Z,36.32
2022-08-31T16:19:47.324Z,36.81
2022-08-31T16:22:14.680Z,37.56
2022-08-31T16:24:43.434Z,36.79
2022-08-31T16:27:16.254Z,37.14
2022-08-31T16:29:44.476Z,38.15
2022-08-31T16:32:12.242Z,37.09
2022-08-31T16:34:40.087Z,37.21
2022-08-31T16:37:08.641Z,37.41
2022-08-31T16:39:37.745Z,38.00
2022-08-31T16:42:06.862Z,37.23
2022-08-31T16:44:36.612Z,37.15
2022-08-31T16:47:05.536Z,37.58
2022-08-31T16:49:41.452Z,37.00
2022-08-31T16:52:24.386Z,37.69
2022-08-31T16:54:51.936Z,37.55
2022-08-31T16:57:23.726Z,37.04
2022-08-31T16:59:51.458Z,37.83
2022-08-31T17:02:19.568Z,38.25
2022-08-31T17:04:54.744Z,38.40
2022-08-31T17:07:24.473Z,38.47
2022-08-31T17:09:56.523Z,38.20
2022-08-31T17:12:26.276Z,38.38
2022-08-31T17:14:53.340Z,38.77
2022-08-31T17:17:25.421Z,38.48
2022-08-31T17:19:54.222Z,38.82
2022-08-31T17:22:29.924Z,38.47
2022-08-31T17:25:00.783Z,38.27
2022-08-31T17:27:27.759Z,38.76
2022-08-31T17:29:56.382Z,39.16
2022-08-31T17:32:27.835Z,39.16
2022-08-31T17:34:56.349Z,38.76
2022-08-31T17:37:33.042Z,38.73
2022-08-31T17:40:00.397Z,38.12
2022-08-31T17:42:28.307Z,38.22
2022-08-31T17:44:56.773Z,37.93
2022-08-31T17:47:25.189Z,39.38
2022-08-31T17:49:52.788Z,38.42
2022-08-31T17:52:21.951Z,38.79
2022-08-31T17:54:51.367Z,38.50
2022-08-31T17:57:22.598Z,38.58
2022-08-31T17:59:49.602Z,39.05
2022-08-31T18:02:20.148Z,39.13
2022-08-31T18:04:47.805Z,39.57
2022-08-31T18:07:14.959Z,40.13
2022-08-31T18:09:45.626Z,40.64
2022-08-31T18:12:14.577Z,40.60
2022-08-31T18:14:42.071Z,41.10
2022-08-31T18:17:13.144Z,40.64
2022-08-31T18:19:40.664Z,41.11
2022-08-31T18:22:08.097Z,39.65
2022-08-31T18:24:37.754Z,39.78
2022-08-31T18:27:07.307Z,39.79
2022-08-31T18:29:36.618Z,40.33
2022-08-31T18:32:06.730Z,40.44
2022-08-31T18:34:36.922Z,39.13
2022-08-31T18:37:04.470Z,39.83
2022-08-31T18:39:52.614Z,39.35
2022-08-31T18:42:39.875Z,39.29
2022-08-31T18:45:19.567Z,38.70
2022-08-31T18:50:45.303Z,38.87
2022-08-31T18:53:15.324Z,38.23
2022-08-31T18:55:44.456Z,38.21
2022-08-31T18:58:11.505Z,38.00
2022-08-31T19:00:40.702Z,37.97
2022-08-31T19:03:08.227Z,37.76
2022-08-31T19:05:38.537Z,37.52
2022-08-31T19:08:05.578Z,37.49
2022-08-31T19:10:32.627Z,37.45
2022-08-31T19:13:00.338Z,37.53
2022-08-31T19:15:33.655Z,37.81
2022-08-31T19:18:05.620Z,37.25
2022-08-31T19:20:33.545Z,37.89
2022-08-31T19:23:00.745Z,37.69
2022-08-31T19:25:28.157Z,37.62
2022-08-31T19:27:55.918Z,38.41
2022-08-31T19:30:27.843Z,39.49
2022-08-31T19:32:56.704Z,40.42
2022-08-31T19:35:27.044Z,40.57
2022-08-31T19:37:56.588Z,41.25
2022-08-31T19:40:37.877Z,41.31
2022-08-31T19:45:54.449Z,43.22
2022-08-31T19:48:23.876Z,44.03
2022-08-31T19:50:52.548Z,45.07
2022-08-31T19:53:21.524Z,46.84
2022-08-31T19:55:51.091Z,47.95
2022-08-31T19:58:19.764Z,47.94
2022-08-31T20:00:48.537Z,47.63
2022-08-31T20:03:16.339Z,47.34
2022-08-31T20:05:43.763Z,49.60
2022-08-31T20:08:11.977Z,49.44
2022-08-31T20:10:43.480Z,49.78
2022-08-31T20:13:12.506Z,50.08
2022-08-31T20:15:41.744Z,49.91
2022-08-31T20:18:11.395Z,50.52
2022-08-31T20:20:45.495Z,50.26
2022-08-31T20:23:17.221Z,49.58
2022-08-31T20:25:46.068Z,49.39
2022-08-31T20:28:13.811Z,48.92
2022-08-31T20:30:42.701Z,49.39
2022-08-31T20:33:11.344Z,49.37
2022-08-31T20:35:47.720Z,49.39
2022-08-31T20:38:16.340Z,50.80
2022-08-31T20:40:45.252Z,51.71
2022-08-31T20:43:13.973Z,50.82
2022-08-31T20:45:42.618Z,50.68
2022-08-31T20:48:28.491Z,53.44
2022-08-31T20:50:56.347Z,52.58
2022-08-31T20:53:42.889Z,51.95
2022-08-31T20:56:17.466Z,54.33
2022-08-31T20:58:46.323Z,53.33
2022-08-31T21:01:14.313Z,54.01
2022-08-31T21:03:41.773Z,53.53
2022-08-31T21:06:13.930Z,56.67
2022-08-31T21:08:42.692Z,58.05
2022-08-31T21:11:18.250Z,59.70
2022-08-31T21:13:47.053Z,61.44
2022-08-31T21:16:14.951Z,62.83
2022-08-31T21:18:41.931Z,63.69
2022-08-31T21:21:15.414Z,63.29
2022-08-31T21:23:42.676Z,67.42
2022-08-31T21:26:15.005Z,67.71
2022-08-31T21:28:43.933Z,68.45
2022-08-31T21:31:14.017Z,66.50
2022-08-31T21:33:46.601Z,66.81
2022-08-31T21:36:15.687Z,69.05
2022-08-31T21:38:43.753Z,67.83
2022-08-31T21:41:13.253Z,65.66
2022-08-31T21:43:40.788Z,64.68
2022-08-31T21:46:10.432Z,67.66
2022-08-31T21:48:39.011Z,67.10
2022-08-31T21:51:22.430Z,67.94
2022-08-31T21:53:51.908Z,68.94
2022-08-31T21:56:20.481Z,69.21
2022-08-31T21:58:48.000Z,69.75
2022-08-31T22:01:18.650Z,74.13
2022-08-31T22:03:47.516Z,74.53
2022-08-31T22:06:26.906Z,74.77
2022-08-31T22:08:55.321Z,75.89
2022-08-31T22:11:24.549Z,73.82
2022-08-31T22:13:55.132Z,71.51
2022-08-31T22:16:22.047Z,72.74
2022-08-31T22:19:07.278Z,71.78
2022-08-31T22:21:35.456Z,72.43
2022-08-31T22:24:06.601Z,74.46
2022-08-31T22:26:39.109Z,73.65
2022-08-31T22:29:07.225Z,76.08
2022-08-31T22:31:39.061Z,75.69
2022-08-31T22:34:07.854Z,74.21
2022-08-31T22:36:35.396Z,76.13
2022-08-31T22:39:06.520Z,75.55
2022-08-31T22:41:37.475Z,76.76
2022-08-31T22:44:06.546Z,75.10
2022-08-31T22:46:34.667Z,72.87
2022-08-31T22:49:02.189Z,71.47
2022-08-31T22:51:29.223Z,70.54
2022-08-31T22:53:56.021Z,71.29
2022-08-31T22:56:28.610Z,70.17
2022-08-31T22:59:00.177Z,73.00
2022-08-31T23:01:34.197Z,73.50
2022-08-31T23:04:06.876Z,71.30
2022-08-31T23:06:36.130Z,74.64
2022-08-31T23:09:05.958Z,75.72
2022-08-31T23:11:32.787Z,76.30
2022-08-31T23:14:01.906Z,75.67
2022-08-31T23:16:38.085Z,75.36
2022-08-31T23:19:12.524Z,74.27
2022-08-31T23:21:52.977Z,72.89
2022-08-31T23:24:29.100Z,73.00
2022-08-31T23:27:01.638Z,74.27
2022-08-31T23:29:31.199Z,73.05
2022-08-31T23:31:59.680Z,72.60
2022-08-31T23:34:26.541Z,71.64
2022-08-31T23:36:54.154Z,70.45
2022-08-31T23:39:23.916Z,70.76
2022-08-31T23:41:51.159Z,71.25
2022-08-31T23:44:20.729Z,72.90
2022-08-31T23:46:48.134Z,73.80
2022-08-31T23:49:18.455Z,75.79
2022-08-31T23:51:45.634Z,77.71
2022-08-31T23:54:14.151Z,76.28
2022-08-31T23:56:43.149Z,77.72
2022-08-31T23:59:19.013Z,77.29
